ADDS METAR Data INFO
IDs: Format: Raw Decoded Include TAF

Data at: 0348 UTC 18 Oct 2017

KHHW 180335Z AUTO 00000KT 10SM CLR 14/06 A3018 RMK AO2 T01430056
KHHW 180315Z AUTO 00000KT 10SM CLR 14/06 A3018 RMK AO2 T01440055
KHHW 180255Z AUTO 00000KT 10SM CLR 15/06 A3017 RMK AO2 T01450055
KHHW 180235Z AUTO 11004KT 10SM CLR 15/06 A3017 RMK AO2 T01450056
KHHW 180215Z AUTO 14004KT 10SM CLR 15/06 A3017 RMK AO2 T01500060
KHHW 180155Z AUTO 14004KT 10SM CLR 16/06 A3016 RMK AO2 T01560061
KHHW 180135Z AUTO 13003KT 10SM CLR 16/06 A3017 RMK AO2 T01630055
KHHW 180115Z AUTO 13003KT 10SM CLR 17/06 A3017 RMK AO2 T01650057
KHHW 180055Z AUTO 00000KT 10SM CLR 17/06 A3016 RMK AO2 T01650059
KHHW 180035Z AUTO 13003KT 10SM CLR 17/06 A3016 RMK AO2 T01650060
KHHW 180015Z AUTO 12004KT 10SM CLR 18/06 A3015 RMK AO2 T01790056
KHHW 172355Z AUTO 12004KT 10SM CLR 19/06 A3015 RMK AO2 T01870057 10234 20187
KHHW 172335Z AUTO 10003KT 10SM CLR 20/06 A3016 RMK AO2 T02010055
KHHW 172315Z AUTO 00000KT 10SM CLR 21/05 A3016 RMK AO2 T02120049
KHHW 172255Z AUTO 00000KT 10SM CLR 22/05 A3016 RMK AO2 T02210046
KHHW 172235Z AUTO 00000KT 10SM CLR 23/04 A3017 RMK AO2 T02250044
KHHW 172215Z AUTO 13003KT 10SM CLR 23/05 A3017 RMK AO2 T02300046
KHHW 172155Z AUTO 00000KT 10SM CLR 23/04 A3018 RMK AO2 T02300043
KHHW 172135Z AUTO 00000KT 10SM CLR 23/04 A3018 RMK AO2 T02300042
KHHW 172115Z AUTO 13004KT 10SM CLR 23/04 A3019 RMK AO2 T02300041
KHHW 172055Z AUTO 09005KT 10SM CLR 23/04 A3019 RMK AO2 T02310041
KHHW 172035Z AUTO 11005KT 10SM CLR 23/04 A3019 RMK AO2 T02300043
KHHW 172015Z AUTO 00000KT 10SM CLR 23/04 A3021 RMK AO2 T02270039
KHHW 171955Z AUTO 13003KT 10SM CLR 22/04 A3022 RMK AO2 T02240037
KHHW 171935Z AUTO 14005KT 10SM CLR 23/04 A3023 RMK AO2 T02250038
KHHW 171915Z AUTO 00000KT 10SM CLR 22/05 A3024 RMK AO2 T02190045
KHHW 171855Z AUTO 11004KT 10SM CLR 22/04 A3025 RMK AO2 T02150042
KHHW 171835Z AUTO 09006KT 10SM CLR 21/04 A3026 RMK AO2 T02140040
KHHW 171815Z AUTO 12007KT 10SM CLR 21/04 A3028 RMK AO2 T02130042
KHHW 171755Z AUTO 11006KT 10SM CLR 21/04 A3029 RMK AO2 T02060036 10206 20071
KHHW 171735Z AUTO 11007KT 10SM CLR 20/04 A3031 RMK AO2 T02020039
KHHW 171715Z AUTO 13008KT 10SM CLR 20/04 A3031 RMK AO2 T01980042
KHHW 171655Z AUTO 12006KT 10SM CLR 20/05 A3032 RMK AO2 T01950045
KHHW 171635Z AUTO 12006KT 10SM CLR 19/04 A3032 RMK AO2 T01860044
KHHW 171615Z AUTO 14006KT 10SM CLR 18/05 A3033 RMK AO2 T01830045
KHHW 171555Z AUTO 15007KT 10SM CLR 17/04 A3033 RMK AO2 T01740040
KHHW 171535Z AUTO 13007KT 10SM CLR 17/05 A3033 RMK AO2 T01690046
KHHW 171515Z AUTO 13008KT 10SM CLR 16/05 A3033 RMK AO2 T01600049
KHHW 171455Z AUTO 12005KT 10SM CLR 15/07 A3033 RMK AO2 T01470068
KHHW 171435Z AUTO 11004KT 10SM CLR 14/07 A3034 RMK AO2 T01350071
KHHW 171415Z AUTO 11004KT 10SM CLR 12/08 A3033 RMK AO2 T01220075
KHHW 171355Z AUTO 11003KT 10SM CLR 11/07 A3033 RMK AO2 T01110073
KHHW 171335Z AUTO 10003KT 10SM CLR 10/07 A3032 RMK AO2 T00990073
KHHW 171315Z AUTO 00000KT 10SM CLR 09/06 A3031 RMK AO2 T00850064
KHHW 171255Z AUTO 10003KT 10SM CLR 08/06 A3031 RMK AO2 T00760062
KHHW 171235Z AUTO 00000KT 10SM CLR 08/06 A3031 RMK AO2 T00750061
KHHW 171215Z AUTO 07003KT 10SM CLR 07/06 A3031 RMK AO2 T00720059
KHHW 171155Z AUTO 07003KT 10SM CLR 07/06 A3031 RMK AO2 T00720055 10108 20069
KHHW 171135Z AUTO 00000KT 10SM CLR 08/06 A3031 RMK AO2 T00790060
KHHW 171115Z AUTO 00000KT 10SM CLR 08/06 A3031 RMK AO2 T00820059
KHHW 171055Z AUTO 00000KT 10SM CLR 09/06 A3030 RMK AO2 T00850060
KHHW 171035Z AUTO 00000KT 10SM CLR 09/06 A3030 RMK AO2 T00870058
KHHW 171015Z AUTO 10004KT 10SM CLR 09/06 A3030 RMK AO2 T00900055
KHHW 170955Z AUTO 10003KT 10SM CLR 09/06 A3029 RMK AO2 T00910060
KHHW 170935Z AUTO 11003KT 10SM CLR 09/06 A3029 RMK AO2 T00940057
KHHW 170915Z AUTO 00000KT 10SM CLR 10/06 A3029 RMK AO2 T00950057
KHHW 170855Z AUTO 00000KT 10SM CLR 10/06 A3029 RMK AO2 T01000060
KHHW 170835Z AUTO 00000KT 10SM CLR 10/06 A3030 RMK AO2 T01010060
KHHW 170815Z AUTO 00000KT 10SM CLR 10/06 A3030 RMK AO2 T01020061
KHHW 170755Z AUTO 00000KT 10SM CLR 10/06 A3030 RMK AO2 T01010062
KHHW 170735Z AUTO 10003KT 10SM CLR 10/06 A3030 RMK AO2 T01010062
KHHW 170715Z AUTO 00000KT 10SM CLR 11/06 A3030 RMK AO2 T01060062
KHHW 170655Z AUTO 00000KT 10SM CLR 10/06 A3030 RMK AO2 T01010060
KHHW 170635Z AUTO 00000KT 10SM CLR 11/06 A3029 RMK AO2 T01050060
KHHW 170615Z AUTO 00000KT 10SM CLR 11/06 A3029 RMK AO2 T01050060
KHHW 170555Z AUTO 00000KT 10SM CLR 11/07 A3028 RMK AO2 T01090067 10195 20106 402330073
KHHW 170535Z AUTO 08004KT 10SM CLR 12/06 A3028 RMK AO2 T01150062
KHHW 170515Z AUTO 07004KT 10SM CLR 11/06 A3028 RMK AO2 T01090057
KHHW 170455Z AUTO 00000KT 10SM CLR 12/06 A3028 RMK AO2 T01220055
KHHW 170435Z AUTO 00000KT 10SM CLR 12/06 A3028 RMK AO2 T01210058
KHHW 170415Z AUTO 00000KT 10SM CLR 13/06 A3028 RMK AO2 T01310055
KHHW 170355Z AUTO 00000KT 10SM CLR 14/05 A3029 RMK AO2 T01410052
KHHW 170335Z AUTO 00000KT 10SM CLR 14/05 A3029 RMK AO2 T01420051
KHHW 170315Z AUTO 00000KT 10SM CLR 14/05 A3028 RMK AO2 T01440052
KHHW 170255Z AUTO 00000KT 10SM CLR 14/06 A3029 RMK AO2 T01430055
KHHW 170235Z AUTO 00000KT 10SM CLR 14/06 A3028 RMK AO2 T01390060
KHHW 170215Z AUTO 01003KT 10SM CLR 15/05 A3028 RMK AO2 T01520053
KHHW 170155Z AUTO 36003KT 10SM CLR 15/06 A3028 RMK AO2 T01510057
KHHW 170135Z AUTO 34004KT 10SM CLR 16/06 A3028 RMK AO2 T01550060
KHHW 170115Z AUTO 00000KT 10SM CLR 16/06 A3028 RMK AO2 T01580056
KHHW 170055Z AUTO 36003KT 10SM CLR 18/04 A3028 RMK AO2 T01790043
KHHW 170035Z AUTO 35004KT 10SM CLR 18/05 A3028 RMK AO2 T01760054
KHHW 170015Z AUTO 00000KT 10SM CLR 18/05 A3027 RMK AO2 T01750053
KHHW 162355Z AUTO 00000KT 10SM CLR 20/04 A3027 RMK AO2 T01970042 10233 20197
KHHW 162335Z AUTO 00000KT 10SM CLR 21/03 A3027 RMK AO2 T02100034
KHHW 162315Z AUTO 00000KT 10SM CLR 21/03 A3026 RMK AO2 T02140033
KHHW 162255Z AUTO 00000KT 10SM CLR 22/02 A3027 RMK AO2 T02210023
KHHW 162235Z AUTO 00000KT 10SM CLR 23/02 A3027 RMK AO2 T02250023
KHHW 162215Z AUTO 00000KT 10SM CLR 23/02 A3027 RMK AO2 T02260024
KHHW 162155Z AUTO 00000KT 10SM CLR 23/02 A3028 RMK AO2 T02260024
KHHW 162135Z AUTO 00000KT 10SM CLR 23/02 A3028 RMK AO2 T02260022
KHHW 162115Z AUTO 00000KT 10SM CLR 23/03 A3028 RMK AO2 T02310031
KHHW 162055Z AUTO 00000KT 10SM CLR 23/03 A3028 RMK AO2 T02290032
KHHW 162035Z AUTO 00000KT 10SM CLR 22/04 A3029 RMK AO2 T02220040
KHHW 162015Z AUTO 34005KT 10SM CLR 22/04 A3030 RMK AO2 T02210039
KHHW 161955Z AUTO 36005KT 10SM CLR 22/04 A3031 RMK AO2 T02210036
KHHW 161935Z AUTO 00000KT 10SM CLR 22/03 A3032 RMK AO2 T02170029
KHHW 161915Z AUTO 00000KT 10SM CLR 22/03 A3033 RMK AO2 T02150034
KHHW 161855Z AUTO 09004KT 10SM CLR 22/03 A3034 RMK AO2 T02150027
KHHW 161835Z AUTO 09004KT 10SM CLR 21/03 A3036 RMK AO2 T02080031
KHHW 161815Z AUTO 02004KT 10SM CLR 20/03 A3037 RMK AO2 T02040032
KHHW 161755Z AUTO 02005KT 10SM CLR 20/03 A3038 RMK AO2 T02020033 10202 20073
KHHW 161735Z AUTO 00000KT 10SM CLR 19/04 A3039 RMK AO2 T01940041
KHHW 161715Z AUTO 08003KT 10SM CLR 19/04 A3041 RMK AO2 T01890040
KHHW 161655Z AUTO 09005KT 10SM CLR 19/04 A3041 RMK AO2 T01860044
KHHW 161635Z AUTO 07006KT 040V110 10SM CLR 18/05 A3042 RMK AO2 T01840050
KHHW 161615Z AUTO 06005KT 10SM CLR 18/05 A3042 RMK AO2 T01760051
KHHW 161555Z AUTO 07008KT 10SM CLR 17/05 A3043 RMK AO2 T01700049